Time;durP1;ratioP1;P1;durP2;ratioP2;P2;SDS_P1;SDS_P2;PMS_P1;PMS_P2;Temp;Humidity;BMP_temperature;BMP_pressure;BME280_temperature;BME280_humidity;BME280_pressure;Samples;Min_cycle;Max_cycle;Signal;HPM_P1;HPM_P2
2022/06/20 00:01:10;;;;;;;14.57;2.85;;;14.50;99.90;;;;;;5055222;28;20048;-77
2022/06/20 00:03:40;;;;;;;7.45;2.67;;;14.40;99.90;;;;;;5037657;28;20455;-77
2022/06/20 00:06:09;;;;;;;9.55;3.00;;;14.40;99.90;;;;;;5037606;28;20397;-77
2022/06/20 00:08:36;;;;;;;10.15;2.60;;;14.40;99.90;;;;;;5037295;28;20045;-77
2022/06/20 00:11:01;;;;;;;13.57;2.95;;;14.40;99.90;;;;;;5055257;28;20076;-77
2022/06/20 00:13:33;;;;;;;9.98;3.00;;;14.30;99.90;;;;;;5055129;28;20087;-77
2022/06/20 00:16:02;;;;;;;10.80;2.83;;;14.30;99.90;;;;;;5037487;28;20477;-77
2022/06/20 00:18:30;;;;;;;12.20;3.20;;;14.30;99.90;;;;;;5055075;28;20049;-77
2022/06/20 00:20:56;;;;;;;13.55;2.97;;;14.30;99.90;;;;;;5037099;28;20175;-77
2022/06/20 00:23:22;;;;;;;9.93;2.60;;;14.30;99.90;;;;;;5037074;28;20132;-77
2022/06/20 00:25:48;;;;;;;8.85;4.03;;;14.40;99.90;;;;;;5037185;28;20175;-77
2022/06/20 00:28:15;;;;;;;8.55;2.78;;;14.30;99.90;;;;;;5054722;28;20505;-77
2022/06/20 00:30:41;;;;;;;12.68;2.65;;;14.30;99.90;;;;;;5054757;28;20086;-77
2022/06/20 00:33:07;;;;;;;6.70;2.30;;;14.30;99.90;;;;;;5036955;28;20507;-77
2022/06/20 00:35:34;;;;;;;13.70;3.08;;;14.30;99.90;;;;;;5036736;28;20041;-77
2022/06/20 00:38:02;;;;;;;10.32;2.88;;;14.30;99.90;;;;;;5054646;28;20052;-77
2022/06/20 00:40:41;;;;;;;8.00;2.65;;;14.30;99.90;;;;;;5054680;28;20045;-77
2022/06/20 00:43:13;;;;;;;7.88;2.45;;;14.30;99.90;;;;;;5036730;28;20057;-77
2022/06/20 00:45:43;;;;;;;14.27;2.63;;;14.30;99.90;;;;;;5054585;28;20037;-77
2022/06/20 00:48:22;;;;;;;16.55;4.00;;;14.30;99.90;;;;;;5054477;28;20052;-77
2022/06/20 00:50:49;;;;;;;7.22;2.17;;;14.30;99.90;;;;;;5054512;28;20040;-77
2022/06/20 00:53:24;;;;;;;13.45;2.80;;;14.30;99.90;;;;;;5054429;28;20051;-77
2022/06/20 00:56:14;;;;;;;10.45;3.20;;;14.20;99.90;;;;;;5036410;28;20045;-77
2022/06/20 00:58:47;;;;;;;12.55;3.85;;;14.20;99.90;;;;;;5036390;28;20128;-77
2022/06/20 01:01:15;;;;;;;12.77;3.45;;;14.20;99.90;;;;;;5054254;28;20484;-77
2022/06/20 01:03:46;;;;;;;13.13;4.10;;;14.20;99.90;;;;;;5054104;28;20045;-77
2022/06/20 01:06:19;;;;;;;12.15;3.47;;;14.30;99.90;;;;;;5054547;28;20437;-77
2022/06/20 01:08:51;;;;;;;;;;;14.20;99.90;;;;;;5054771;28;20045;-77
2022/06/20 01:11:22;;;;;;;7.43;3.53;;;14.20;99.90;;;;;;5036128;28;19920;-77
2022/06/20 01:13:49;;;;;;;12.00;3.97;;;14.20;99.90;;;;;;5036451;28;20059;-77
2022/06/20 01:16:14;;;;;;;9.73;3.70;;;14.20;99.90;;;;;;5054077;28;20040;-77
2022/06/20 01:18:46;;;;;;;11.55;4.32;;;14.10;99.90;;;;;;5053748;28;20053;-77
2022/06/20 01:21:21;;;;;;;13.45;4.60;;;14.10;99.90;;;;;;5053795;28;20137;-77
2022/06/20 01:24:05;;;;;;;14.98;4.38;;;14.10;99.90;;;;;;5053921;28;20052;-77
2022/06/20 01:26:48;;;;;;;11.85;3.97;;;14.10;99.90;;;;;;5036318;28;20067;-77
2022/06/20 01:29:15;;;;;;;22.02;5.35;;;14.10;99.90;;;;;;5035839;28;20045;-77
2022/06/20 01:31:49;;;;;;;16.95;5.32;;;14.00;99.90;;;;;;5053627;28;20059;-77
2022/06/20 01:34:16;;;;;;;18.88;4.57;;;14.10;99.90;;;;;;5053597;28;20045;-77
2022/06/20 01:39:28;;;;;;;15.93;5.03;;;14.10;99.90;;;;;;5053690;28;20116;-77
2022/06/20 01:44:43;;;;;;;13.65;4.43;;;14.00;99.90;;;;;;5052722;28;20087;-77
2022/06/20 01:47:09;;;;;;;22.50;5.32;;;14.00;99.90;;;;;;5052852;28;20107;-77
2022/06/20 01:49:36;;;;;;;15.07;5.03;;;14.00;99.90;;;;;;5035062;28;20049;-77
2022/06/20 01:52:07;;;;;;;14.85;4.82;;;14.00;99.90;;;;;;5052785;28;20045;-77
2022/06/20 01:54:39;;;;;;;15.50;5.20;;;13.90;99.90;;;;;;5052754;28;20076;-77
2022/06/20 01:57:08;;;;;;;20.00;5.43;;;13.90;99.90;;;;;;5052590;28;20124;-77
2022/06/20 01:59:50;;;;;;;22.45;6.25;;;13.90;99.90;;;;;;5052627;28;20049;-77
2022/06/20 02:02:17;;;;;;;18.92;5.50;;;13.90;99.90;;;;;;5052592;28;20174;-77
2022/06/20 02:04:44;;;;;;;15.32;6.22;;;13.80;99.90;;;;;;5052609;28;20048;-77
2022/06/20 02:07:12;;;;;;;19.42;5.07;;;13.90;99.90;;;;;;5034500;28;20045;-77
2022/06/20 02:09:39;;;;;;;20.45;5.35;;;13.80;99.90;;;;;;5034889;28;20053;-77
2022/06/20 02:12:06;;;;;;;21.02;5.93;;;13.80;99.90;;;;;;5052514;28;20041;-77
2022/06/20 02:14:44;;;;;;;14.65;5.45;;;13.80;99.90;;;;;;5034954;28;20060;-77
2022/06/20 02:17:14;;;;;;;17.80;5.30;;;13.90;99.90;;;;;;5034401;28;20037;-77
2022/06/20 02:19:46;;;;;;;18.65;5.07;;;13.80;99.90;;;;;;5052492;28;20048;-77
2022/06/20 02:22:15;;;;;;;21.05;5.13;;;13.80;99.90;;;;;;5053418;28;20049;-77
2022/06/20 02:24:46;;;;;;;15.52;5.45;;;13.80;99.90;;;;;;5038341;28;20044;-77
2022/06/20 02:27:37;;;;;;;17.52;5.20;;;13.80;99.90;;;;;;5055711;28;20493;-77
2022/06/20 02:30:05;;;;;;;17.02;5.53;;;13.80;99.90;;;;;;5055978;28;20045;-77
2022/06/20 02:32:35;;;;;;;23.42;5.32;;;13.80;99.90;;;;;;5037851;28;20080;-77
2022/06/20 02:35:06;;;;;;;12.95;4.75;;;13.80;99.90;;;;;;5055931;28;20059;-77
2022/06/20 02:37:34;;;;;;;17.20;5.80;;;13.80;99.90;;;;;;5055753;28;20045;-77
2022/06/20 02:40:03;;;;;;;24.58;5.57;;;13.90;99.90;;;;;;5037682;28;20049;-77
2022/06/20 02:42:32;;;;;;;17.60;5.22;;;13.80;99.90;;;;;;5056382;28;20041;-77
2022/06/20 02:44:58;;;;;;;22.77;5.95;;;13.80;99.90;;;;;;5018905;28;1078051;-77
2022/06/20 02:47:25;;;;;;;14.57;4.68;;;13.80;99.90;;;;;;5055441;28;20048;-77
2022/06/20 02:49:54;;;;;;;13.27;5.55;;;13.80;99.90;;;;;;5056803;28;20041;-77
2022/06/20 02:52:26;;;;;;;16.00;5.20;;;13.80;99.90;;;;;;5038872;28;20472;-77
2022/06/20 02:54:53;;;;;;;14.40;5.22;;;13.80;99.90;;;;;;5038752;28;20439;-77
2022/06/20 02:57:41;;;;;;;19.98;5.15;;;13.80;99.90;;;;;;5038336;28;20373;-77
2022/06/20 03:00:13;;;;;;;16.88;5.07;;;13.80;99.90;;;;;;5038727;28;20053;-77
2022/06/20 03:02:44;;;;;;;17.58;5.05;;;13.80;99.90;;;;;;5038066;28;20051;-77
2022/06/20 03:05:09;;;;;;;15.90;4.40;;;13.80;99.90;;;;;;5055488;28;20538;-77
2022/06/20 03:07:37;;;;;;;16.73;5.03;;;13.80;99.90;;;;;;5036914;28;20033;-77
2022/06/20 03:10:28;;;;;;;17.75;5.65;;;13.80;99.90;;;;;;5037936;28;20450;-77
2022/06/20 03:12:56;;;;;;;16.83;5.45;;;13.80;99.90;;;;;;5038146;28;20133;-77
2022/06/20 03:15:23;;;;;;;15.00;6.03;;;13.80;99.90;;;;;;5056305;28;20051;-77
2022/06/20 03:17:52;;;;;;;19.13;5.30;;;13.70;99.90;;;;;;5038256;28;20053;-77
2022/06/20 03:20:20;;;;;;;19.48;5.07;;;13.70;99.90;;;;;;5056054;28;20045;-77
2022/06/20 03:22:54;;;;;;;15.40;5.40;;;13.60;99.90;;;;;;5038033;28;20106;-77
2022/06/20 03:25:21;;;;;;;20.05;6.38;;;13.60;99.90;;;;;;5056149;28;20127;-77
2022/06/20 03:27:51;;;;;;;24.98;6.82;;;13.70;99.90;;;;;;5037950;28;20083;-77
2022/06/20 03:30:27;;;;;;;20.23;5.25;;;13.70;99.90;;;;;;5038200;28;20045;-77
2022/06/20 03:32:54;;;;;;;19.50;5.75;;;13.70;99.90;;;;;;5055649;28;20436;-77
2022/06/20 03:35:20;;;;;;;22.73;5.93;;;13.70;99.90;;;;;;5055961;28;20059;-77
2022/06/20 03:37:46;;;;;;;25.85;5.95;;;13.80;99.90;;;;;;5037807;28;20045;-77
2022/06/20 03:40:12;;;;;;;19.48;5.72;;;13.70;99.90;;;;;;5055777;28;20049;-77
2022/06/20 03:42:38;;;;;;;20.60;5.57;;;13.70;99.90;;;;;;5037967;28;20048;-77
2022/06/20 03:45:07;;;;;;;17.60;5.57;;;13.70;99.90;;;;;;5037537;28;20136;-77
2022/06/20 03:47:53;;;;;;;21.10;5.90;;;13.70;99.90;;;;;;5037563;28;20142;-77
2022/06/20 03:50:24;;;;;;;27.10;7.50;;;13.80;99.90;;;;;;5055676;28;20562;-77
2022/06/20 03:53:05;;;;;;;19.60;5.82;;;13.80;99.90;;;;;;5055602;28;20105;-77
2022/06/20 03:55:57;;;;;;;19.92;5.63;;;13.70;99.90;;;;;;5055507;28;20048;-77
2022/06/20 03:58:44;;;;;;;20.60;5.68;;;13.70;99.90;;;;;;5017076;28;20127;-77
2022/06/20 04:01:13;;;;;;;15.95;5.40;;;13.70;99.90;;;;;;5055417;28;20086;-77
2022/06/20 04:03:45;;;;;;;16.65;6.32;;;13.80;99.90;;;;;;5055117;28;20371;-77
2022/06/20 04:06:25;;;;;;;21.65;6.35;;;13.80;99.90;;;;;;5037246;28;20048;-78
2022/06/20 04:12:10;;;;;;;18.27;5.90;;;13.80;99.90;;;;;;5055115;28;20052;-77
2022/06/20 04:14:49;;;;;;;21.02;5.78;;;13.90;99.90;;;;;;5036955;28;20558;-77
2022/06/20 04:20:58;;;;;;;21.13;5.97;;;14.00;99.90;;;;;;5028978;28;20056;-77
2022/06/20 04:23:34;;;;;;;27.65;6.97;;;14.10;99.90;;;;;;5054826;28;20053;-77
2022/06/20 04:26:17;;;;;;;25.13;6.00;;;14.10;99.90;;;;;;5054662;28;20059;-77
2022/06/20 04:29:09;;;;;;;28.92;6.35;;;14.20;99.90;;;;;;5054839;28;20051;-77
2022/06/20 04:31:50;;;;;;;26.38;6.72;;;14.30;99.90;;;;;;5054485;28;20048;-77
2022/06/20 04:34:23;;;;;;;27.63;6.18;;;14.40;99.90;;;;;;5054508;28;20516;-77
2022/06/20 04:36:56;;;;;;;25.17;6.43;;;14.50;99.90;;;;;;5036871;28;20117;-77
2022/06/20 04:39:37;;;;;;;20.02;5.15;;;14.60;99.90;;;;;;5036609;28;20400;-77
2022/06/20 04:42:45;;;;;;;16.08;3.92;;;14.70;99.90;;;;;;5054648;28;20040;-77
2022/06/20 04:45:22;;;;;;;17.83;4.18;;;14.70;99.90;;;;;;5053970;28;20143;-77
2022/06/20 04:48:06;;;;;;;12.95;3.72;;;14.60;99.90;;;;;;5036713;28;20044;-77
2022/06/20 04:50:34;;;;;;;16.67;3.72;;;14.60;99.90;;;;;;5054526;28;20052;-77
2022/06/20 04:53:05;;;;;;;20.23;5.55;;;14.70;99.90;;;;;;5054407;28;20108;-77
2022/06/20 04:55:33;;;;;;;11.60;4.03;;;14.80;99.90;;;;;;5054077;28;20475;-77
2022/06/20 04:58:04;;;;;;;18.10;5.35;;;14.80;99.90;;;;;;5036431;28;20036;-77
2022/06/20 05:00:39;;;;;;;14.23;4.75;;;15.00;99.90;;;;;;5036213;28;20048;-77
2022/06/20 05:03:07;;;;;;;23.80;6.53;;;15.10;99.90;;;;;;5036226;28;20116;-77
2022/06/20 05:05:39;;;;;;;24.45;5.20;;;15.20;99.90;;;;;;5053858;28;20049;-77
2022/06/20 05:08:10;;;;;;;23.45;5.45;;;15.20;99.90;;;;;;5053917;28;20511;-77
2022/06/20 05:10:42;;;;;;;14.98;5.10;;;15.30;99.90;;;;;;5054140;28;20037;-77
2022/06/20 05:13:30;;;;;;;21.40;6.07;;;15.40;99.90;;;;;;5053967;28;20404;-77
2022/06/20 05:15:56;;;;;;;17.88;5.10;;;15.50;99.90;;;;;;5054005;28;20073;-77
2022/06/20 05:18:36;;;;;;;19.95;6.30;;;15.50;99.90;;;;;;5053958;28;20045;-77
2022/06/20 05:21:09;;;;;;;14.60;5.03;;;15.70;99.90;;;;;;5053998;28;20102;-77
2022/06/20 05:23:41;;;;;;;18.25;6.80;;;15.80;99.90;;;;;;5053920;28;20076;-77
2022/06/20 05:26:10;;;;;;;20.48;6.53;;;15.80;99.90;;;;;;5053845;28;20049;-77
2022/06/20 05:28:37;;;;;;;20.90;4.72;;;15.70;99.90;;;;;;5035866;28;20052;-78
2022/06/20 05:31:05;;;;;;;16.80;5.43;;;15.80;99.90;;;;;;5036047;28;20060;-78
2022/06/20 05:33:59;;;;;;;17.15;5.55;;;15.80;99.90;;;;;;5053484;28;20076;-78
2022/06/20 05:36:56;;;;;;;18.13;4.97;;;15.80;99.90;;;;;;5053662;28;20041;-77
2022/06/20 05:39:56;;;;;;;23.83;5.47;;;15.90;99.90;;;;;;5042713;28;20405;-77
2022/06/20 05:42:22;;;;;;;21.08;6.13;;;16.00;99.90;;;;;;5053299;28;20059;-77
2022/06/20 05:44:48;;;;;;;20.63;5.70;;;16.00;99.90;;;;;;5035365;28;20132;-77
2022/06/20 05:47:28;;;;;;;22.52;6.55;;;16.10;99.90;;;;;;5053246;28;20092;-77
2022/06/20 05:50:01;;;;;;;23.83;5.82;;;16.30;99.90;;;;;;5053608;28;20055;-77
2022/06/20 05:52:27;;;;;;;;;;;16.40;99.90;;;;;;5053944;28;20119;-77
2022/06/20 05:55:09;;;;;;;28.65;5.70;;;16.60;99.90;;;;;;5053492;28;19959;-77
2022/06/20 05:57:39;;;;;;;10.85;5.10;;;16.60;99.90;;;;;;5052464;28;20052;-77
2022/06/20 06:00:16;;;;;;;20.65;4.88;;;16.70;99.90;;;;;;5053446;28;20045;-77
2022/06/20 06:02:47;;;;;;;22.17;4.78;;;16.90;99.90;;;;;;5035510;28;20095;-77
2022/06/20 06:05:35;;;;;;;14.45;4.78;;;16.70;99.90;;;;;;5053465;28;20052;-77
2022/06/20 06:08:07;;;;;;;24.88;5.47;;;16.50;99.90;;;;;;5052971;28;20499;-77
2022/06/20 06:11:03;;;;;;;27.10;6.28;;;16.40;99.90;;;;;;5053360;28;20400;-77
2022/06/20 06:13:43;;;;;;;25.05;4.05;;;16.30;99.90;;;;;;5035515;28;20052;-77
2022/06/20 06:19:11;;;;;;;14.90;4.60;;;16.50;99.90;;;;;;5053190;28;20052;-77
2022/06/20 06:21:37;;;;;;;28.42;5.68;;;16.60;99.90;;;;;;5053283;28;20182;-77
2022/06/20 06:24:06;;;;;;;23.27;5.65;;;16.70;99.90;;;;;;5035208;28;20394;-77
2022/06/20 06:26:33;;;;;;;19.70;5.80;;;16.80;99.90;;;;;;5052901;28;20392;-77
2022/06/20 06:28:59;;;;;;;29.95;4.47;;;16.80;99.90;;;;;;5052727;28;20045;-78
2022/06/20 06:31:33;;;;;;;20.25;5.63;;;16.90;99.90;;;;;;5035398;28;20056;-78
2022/06/20 06:34:05;;;;;;;20.75;4.28;;;16.80;99.90;;;;;;5035149;28;20484;-77
2022/06/20 06:36:37;;;;;;;20.70;4.30;;;16.90;99.90;;;;;;5053000;28;20045;-77
2022/06/20 06:39:10;;;;;;;19.30;4.32;;;16.90;99.90;;;;;;5052931;28;20523;-78
2022/06/20 06:41:37;;;;;;;;;;;16.90;99.90;;;;;;5053298;28;20076;-78
2022/06/20 06:44:16;;;;;;;13.73;4.00;;;16.80;99.90;;;;;;5034961;28;19921;-77
2022/06/20 06:46:46;;;;;;;14.68;4.38;;;16.70;99.90;;;;;;5051625;28;20045;-78
2022/06/20 06:49:12;;;;;;;17.90;3.92;;;16.60;99.90;;;;;;5052773;28;20508;-77
2022/06/20 06:52:02;;;;;;;16.08;4.78;;;16.60;99.90;;;;;;5052800;28;20117;-77
2022/06/20 06:55:05;;;;;;;15.23;3.97;;;16.50;99.90;;;;;;5037503;28;20053;-78
2022/06/20 06:57:35;;;;;;;12.45;3.67;;;16.50;99.90;;;;;;5054806;28;20041;-77
2022/06/20 07:00:03;;;;;;;13.73;3.72;;;16.80;99.90;;;;;;5052689;28;20056;-76
2022/06/20 07:02:33;;;;;;;17.67;3.75;;;16.90;99.90;;;;;;5034594;28;20151;-76
2022/06/20 07:05:12;;;;;;;15.95;4.22;;;17.00;99.90;;;;;;5052995;28;20037;-76
2022/06/20 07:07:54;;;;;;;17.88;3.70;;;17.10;99.90;;;;;;5034838;28;20048;-77
2022/06/20 07:10:26;;;;;;;17.90;3.80;;;17.20;99.90;;;;;;5056263;28;20128;-76
2022/06/20 07:12:58;;;;;;;18.75;3.67;;;17.40;99.90;;;;;;5056266;28;20047;-76
2022/06/20 07:15:25;;;;;;;13.75;2.88;;;17.50;99.90;;;;;;5038331;28;20412;-77
2022/06/20 07:18:03;;;;;;;15.98;4.35;;;17.50;99.90;;;;;;5038264;28;20589;-77
2022/06/20 07:20:36;;;;;;;12.02;3.72;;;17.70;99.90;;;;;;5037954;28;20056;-77
2022/06/20 07:23:05;;;;;;;16.08;3.63;;;17.80;99.90;;;;;;5037902;28;20116;-77
2022/06/20 07:25:38;;;;;;;12.27;3.60;;;17.80;99.90;;;;;;5055710;28;20120;-76
2022/06/20 07:28:09;;;;;;;12.93;4.13;;;17.90;99.90;;;;;;5055770;28;20507;-77
2022/06/20 07:30:42;;;;;;;12.77;5.07;;;18.00;99.90;;;;;;5055607;28;20493;-77
2022/06/20 07:33:23;;;;;;;20.58;4.10;;;18.00;99.90;;;;;;5055918;28;20041;-76
2022/06/20 07:35:53;;;;;;;16.08;4.20;;;18.00;99.90;;;;;;5055800;28;20044;-76
2022/06/20 07:38:25;;;;;;;11.77;3.92;;;17.90;99.90;;;;;;5037623;28;20547;-77
2022/06/20 07:41:01;;;;;;;11.88;5.38;;;17.60;99.90;;;;;;5037497;28;20049;-77
2022/06/20 07:43:40;;;;;;;14.88;4.38;;;17.60;99.90;;;;;;5069565;28;20096;-77
2022/06/20 07:46:19;;;;;;;22.55;4.80;;;17.70;99.90;;;;;;5072924;28;20407;-77
2022/06/20 07:48:47;;;;;;;10.57;3.88;;;17.80;99.90;;;;;;5075575;28;20048;-77
2022/06/20 07:51:15;;;;;;;13.80;4.28;;;17.90;99.90;;;;;;5074034;28;20045;-76
2022/06/20 07:54:08;;;;;;;11.85;4.75;;;17.90;99.90;;;;;;5073966;28;20051;-76
2022/06/20 07:56:39;;;;;;;13.43;4.00;;;17.80;99.90;;;;;;5075163;28;20045;-76
2022/06/20 07:59:29;;;;;;;14.50;4.13;;;17.80;99.90;;;;;;5075181;28;20044;-77
2022/06/20 08:02:24;;;;;;;15.02;5.45;;;17.80;99.90;;;;;;5074058;28;20052;-76
2022/06/20 08:04:56;;;;;;;14.07;4.50;;;18.00;99.90;;;;;;5074089;28;20049;-76
2022/06/20 08:07:27;;;;;;;13.53;3.87;;;18.10;99.90;;;;;;5075205;28;20041;-76
2022/06/20 08:10:00;;;;;;;14.65;3.60;;;18.30;99.90;;;;;;5073713;28;20044;-76
2022/06/20 08:12:35;;;;;;;15.25;3.85;;;18.50;99.90;;;;;;5074541;28;20055;-76
2022/06/20 08:15:11;;;;;;;9.45;3.42;;;18.60;99.90;;;;;;5065949;28;20087;-77
2022/06/20 08:17:38;;;;;;;11.90;3.28;;;18.60;99.90;;;;;;5056854;28;20083;-78
2022/06/20 08:20:04;;;;;;;12.38;3.58;;;18.70;99.90;;;;;;5073783;28;20056;-77
2022/06/20 08:22:41;;;;;;;9.50;3.70;;;18.70;99.90;;;;;;5073971;28;20365;-77
2022/06/20 08:25:24;;;;;;;13.77;3.42;;;18.70;99.90;;;;;;5074861;28;20048;-77
2022/06/20 08:28:13;;;;;;;7.65;3.22;;;18.70;99.90;;;;;;5073483;28;20143;-77
2022/06/20 08:30:59;;;;;;;14.88;3.95;;;18.80;99.90;;;;;;5074675;28;20071;-77
2022/06/20 08:33:56;;;;;;;13.07;3.70;;;18.80;99.90;;;;;;5074730;28;20106;-78
2022/06/20 08:36:37;;;;;;;10.13;5.13;;;19.00;99.90;;;;;;5074829;28;20044;-78
2022/06/20 08:39:15;;;;;;;13.93;4.35;;;19.10;99.90;;;;;;5073122;28;20094;-76
2022/06/20 08:41:50;;;;;;;9.63;3.55;;;19.10;99.90;;;;;;5073267;28;20504;-77
2022/06/20 08:44:47;;;;;;;16.30;4.13;;;19.30;99.90;;;;;;5063100;28;20060;-77
2022/06/20 08:47:34;;;;;;;15.27;4.15;;;19.40;99.90;;;;;;5072918;28;20051;-76
2022/06/20 08:50:31;;;;;;;10.35;4.25;;;19.40;99.90;;;;;;5073112;28;20525;-77
2022/06/20 08:53:11;;;;;;;11.00;3.22;;;19.30;99.90;;;;;;5074151;28;20060;-77
2022/06/20 08:55:58;;;;;;;10.48;3.42;;;19.30;99.90;;;;;;5072912;28;20087;-76
2022/06/20 08:58:27;;;;;;;17.42;4.30;;;19.30;99.90;;;;;;5072989;28;20059;-77
2022/06/20 09:01:10;;;;;;;21.52;3.90;;;19.10;99.90;;;;;;5074125;28;20041;-77
2022/06/20 09:03:57;;;;;;;10.05;3.30;;;18.90;99.90;;;;;;5072648;28;20044;-76
2022/06/20 09:06:53;;;;;;;15.38;3.45;;;19.20;99.90;;;;;;5072804;28;20496;-77
2022/06/20 09:09:22;;;;;;;10.82;3.63;;;19.30;99.90;;;;;;5073575;28;20055;-77
2022/06/20 09:12:01;;;;;;;13.20;3.70;;;19.20;99.90;;;;;;5072790;28;20123;-77
2022/06/20 09:14:48;;;;;;;12.95;3.90;;;19.20;99.90;;;;;;5072287;28;20507;-77
2022/06/20 09:17:25;;;;;;;14.82;3.60;;;19.10;99.90;;;;;;5073744;28;20131;-77
2022/06/20 09:20:12;;;;;;;12.27;3.80;;;19.00;99.90;;;;;;5073734;28;20049;-77
2022/06/20 09:22:41;;;;;;;12.10;3.67;;;19.20;99.90;;;;;;5056415;28;20044;-76
2022/06/20 09:25:10;;;;;;;16.48;3.92;;;19.40;99.90;;;;;;5063771;28;20553;-77
2022/06/20 09:27:42;;;;;;;12.32;3.80;;;19.50;99.90;;;;;;5072438;28;20073;-77
2022/06/20 09:30:33;;;;;;;13.88;3.92;;;19.50;99.90;;;;;;5072152;28;20084;-77
2022/06/20 09:33:44;;;;;;;13.90;3.70;;;19.80;99.90;;;;;;5072193;28;20052;-76
2022/06/20 09:36:47;;;;;;;15.05;4.18;;;19.80;99.90;;;;;;4994112;28;20050;-77
2022/06/20 09:39:28;;;;;;;13.10;3.78;;;19.80;99.90;;;;;;4990100;28;20057;-77
2022/06/20 09:42:05;;;;;;;12.32;3.35;;;19.70;99.90;;;;;;5043617;28;20396;-78
2022/06/20 09:44:38;;;;;;;15.35;3.90;;;19.90;99.90;;;;;;5071762;28;20059;-77
2022/06/20 09:47:19;;;;;;;16.58;5.53;;;19.90;99.90;;;;;;5055035;28;20045;-77
2022/06/20 09:49:57;;;;;;;9.88;3.95;;;20.00;99.90;;;;;;5055296;28;20101;-76
2022/06/20 09:52:38;;;;;;;12.43;4.38;;;20.10;99.90;;;;;;5073251;28;20495;-77
2022/06/20 09:55:28;;;;;;;12.85;3.75;;;20.20;99.90;;;;;;5073126;28;20076;-77
2022/06/20 09:58:07;;;;;;;17.52;3.90;;;20.00;99.90;;;;;;5073473;28;20052;-77
2022/06/20 10:01:04;;;;;;;15.48;4.70;;;20.10;99.90;;;;;;5055130;28;20044;-77
2022/06/20 10:03:51;;;;;;;13.50;4.43;;;20.30;99.90;;;;;;5073059;28;20403;-76
2022/06/20 10:06:37;;;;;;;8.10;4.53;;;20.10;99.90;;;;;;5055409;28;20055;-76
2022/06/20 10:09:20;;;;;;;18.90;6.28;;;20.40;99.90;;;;;;5073286;28;20051;-76
2022/06/20 10:12:02;;;;;;;13.38;4.63;;;20.60;99.90;;;;;;5055340;28;20341;-76
2022/06/20 10:14:51;;;;;;;20.40;4.82;;;20.60;99.90;;;;;;5073299;28;20095;-76
2022/06/20 10:17:31;;;;;;;16.75;5.53;;;20.40;99.90;;;;;;5055306;28;20048;-76
2022/06/20 10:20:07;;;;;;;12.38;4.38;;;20.20;99.90;;;;;;5054979;28;20049;-76
2022/06/20 10:22:43;;;;;;;14.95;4.78;;;20.30;99.90;;;;;;5055051;28;20597;-76
2022/06/20 10:25:29;;;;;;;14.68;5.10;;;20.40;99.90;;;;;;5055257;28;20522;-76
2022/06/20 10:28:01;;;;;;;11.20;4.18;;;20.50;99.90;;;;;;5055061;28;20052;-76
2022/06/20 10:31:01;;;;;;;9.45;4.47;;;20.40;99.90;;;;;;5072882;28;20054;-76
2022/06/20 10:33:50;;;;;;;11.73;4.22;;;20.50;99.90;;;;;;5055194;28;20052;-76
2022/06/20 10:36:51;;;;;;;13.43;4.70;;;20.30;99.90;;;;;;5072887;28;20048;-76
2022/06/20 10:39:45;;;;;;;9.93;4.32;;;20.40;99.90;;;;;;5072830;28;20580;-76
2022/06/20 10:42:18;;;;;;;13.75;5.35;;;20.40;99.90;;;;;;5072686;28;20040;-76
2022/06/20 10:44:49;;;;;;;12.25;4.90;;;20.30;99.90;;;;;;5058221;28;20054;-76
2022/06/20 10:47:47;;;;;;;12.18;4.78;;;20.40;99.90;;;;;;5076278;28;20466;-76
2022/06/20 10:50:32;;;;;;;16.17;5.20;;;20.50;99.90;;;;;;5004464;28;20053;-76
2022/06/20 10:53:17;;;;;;;16.55;5.45;;;20.70;99.90;;;;;;5058734;28;20123;-76
2022/06/20 10:56:25;;;;;;;12.32;5.63;;;20.90;99.90;;;;;;5058330;28;20056;-77
2022/06/20 10:58:59;;;;;;;20.95;5.53;;;20.90;99.90;;;;;;5058638;28;20082;-76
2022/06/20 11:01:37;;;;;;;17.48;5.53;;;20.90;99.90;;;;;;5058641;28;20052;-75
2022/06/20 11:04:45;;;;;;;14.68;6.28;;;20.90;99.90;;;;;;5058153;28;20436;-76
2022/06/20 11:07:33;;;;;;;13.32;5.10;;;20.80;99.90;;;;;;5075480;28;20415;-76
2022/06/20 11:10:20;;;;;;;16.35;4.50;;;20.50;99.90;;;;;;5047648;28;20107;-76
2022/06/20 11:12:56;;;;;;;13.77;5.53;;;20.70;99.90;;;;;;5076050;28;20403;-76
2022/06/20 11:15:38;;;;;;;14.15;4.70;;;20.90;99.90;;;;;;5058290;28;20051;-77
2022/06/20 11:18:27;;;;;;;17.85;5.10;;;20.80;99.90;;;;;;5058084;28;20049;-76
2022/06/20 11:21:18;;;;;;;10.27;4.88;;;20.80;99.90;;;;;;5058083;28;20040;-77
2022/06/20 11:24:10;;;;;;;11.95;5.00;;;20.70;99.90;;;;;;5075972;28;20048;-77
2022/06/20 11:27:12;;;;;;;13.10;4.45;;;20.50;99.90;;;;;;5058011;28;20488;-77
2022/06/20 11:29:53;;;;;;;16.48;3.50;;;20.30;99.90;;;;;;4974686;28;20047;-77
2022/06/20 11:32:32;;;;;;;8.85;4.35;;;20.10;99.90;;;;;;5047680;28;20418;-77
2022/06/20 11:35:17;;;;;;;13.05;4.18;;;20.40;99.90;;;;;;5057900;28;20475;-77
2022/06/20 11:38:20;;;;;;;9.63;4.13;;;20.50;99.90;;;;;;5057689;28;20131;-79
2022/06/20 11:41:00;;;;;;;11.23;4.82;;;20.80;99.90;;;;;;5075567;28;20050;-76
2022/06/20 11:44:07;;;;;;;8.05;4.07;;;20.70;99.90;;;;;;5057235;28;20513;-78
2022/06/20 11:47:12;;;;;;;13.65;4.55;;;20.40;99.90;;;;;;5057359;28;20048;-77
2022/06/20 11:49:48;;;;;;;11.23;4.88;;;20.30;99.90;;;;;;4987171;28;20058;-78
2022/06/20 11:52:57;;;;;;;9.35;4.25;;;20.30;99.90;;;;;;5057420;28;20056;-77
2022/06/20 11:55:41;;;;;;;13.20;4.35;;;20.10;99.90;;;;;;5057469;28;20044;-77
2022/06/20 11:58:25;;;;;;;13.63;4.70;;;20.30;99.90;;;;;;5057595;28;20040;-77
2022/06/20 12:01:04;;;;;;;14.73;4.47;;;20.40;99.90;;;;;;5075062;28;20492;-77
2022/06/20 12:03:46;;;;;;;11.63;4.40;;;20.50;99.90;;;;;;5057505;28;20118;-76
2022/06/20 12:06:25;;;;;;;17.33;4.40;;;20.80;99.90;;;;;;5057423;28;20056;-76
2022/06/20 12:08:58;;;;;;;14.38;4.40;;;20.70;99.90;;;;;;5057013;28;20549;-76
2022/06/20 12:11:30;;;;;;;10.85;4.25;;;20.80;99.90;;;;;;5074988;28;20086;-76
2022/06/20 12:14:24;;;;;;;12.35;4.18;;;20.70;99.90;;;;;;5057065;28;20036;-76
2022/06/20 12:17:08;;;;;;;10.93;3.90;;;20.60;99.90;;;;;;5074650;28;20426;-76
2022/06/20 12:23:18;;;;;;;9.93;4.72;;;20.80;99.90;;;;;;5057047;28;20060;-76
2022/06/20 12:26:20;;;;;;;10.18;3.20;;;20.50;99.90;;;;;;5056945;28;20490;-76
2022/06/20 12:28:52;;;;;;;13.40;4.28;;;20.50;99.90;;;;;;5074842;28;20044;-76
2022/06/20 12:31:24;;;;;;;11.43;4.13;;;20.60;99.90;;;;;;5056560;28;20044;-76
2022/06/20 12:33:57;;;;;;;12.45;5.18;;;20.50;99.90;;;;;;5074798;28;20063;-76
2022/06/20 12:36:34;;;;;;;14.07;4.35;;;20.30;99.90;;;;;;5074722;28;20094;-76
2022/06/20 12:39:25;;;;;;;16.63;4.85;;;20.10;99.90;;;;;;5056839;28;20372;-77
2022/06/20 12:41:57;;;;;;;16.42;5.40;;;19.60;99.90;;;;;;5056633;28;20048;-74
2022/06/20 12:45:21;;;;;;;12.13;4.35;;;19.50;99.90;;;;;;5074190;28;20056;-75
2022/06/20 12:48:24;;;;;;;12.13;3.90;;;19.60;99.90;;;;;;4930719;28;20079;-74
2022/06/20 12:51:15;;;;;;;10.15;4.57;;;19.70;99.90;;;;;;4973385;28;20047;-76
2022/06/20 12:54:11;;;;;;;15.30;4.07;;;19.50;99.90;;;;;;5054928;28;20515;-76
2022/06/20 12:56:39;;;;;;;11.82;4.40;;;19.70;99.90;;;;;;5074311;28;20123;-76
2022/06/20 12:59:35;;;;;;;15.82;4.55;;;19.80;99.90;;;;;;5074175;28;20123;-76
2022/06/20 13:02:17;;;;;;;12.13;4.07;;;20.00;99.90;;;;;;5056245;28;20102;-78
2022/06/20 13:05:20;;;;;;;14.83;3.97;;;20.20;99.90;;;;;;5074140;28;20106;-78
2022/06/20 13:07:55;;;;;;;11.20;3.88;;;19.90;99.90;;;;;;5073691;28;20045;-76
2022/06/20 13:10:40;;;;;;;12.35;3.88;;;20.10;99.90;;;;;;5073758;28;20479;-75
2022/06/20 13:13:05;;;;;;;9.98;3.80;;;20.10;99.90;;;;;;5073725;28;20060;-75
2022/06/20 13:15:43;;;;;;;10.68;4.75;;;19.80;99.90;;;;;;5073914;28;20109;-75
2022/06/20 13:18:24;;;;;;;10.25;4.00;;;19.70;99.90;;;;;;5073850;28;20127;-74
2022/06/20 13:20:55;;;;;;;13.90;4.35;;;19.60;99.90;;;;;;5055735;28;20052;-75
2022/06/20 13:23:48;;;;;;;13.95;4.72;;;19.70;99.90;;;;;;5073599;28;20056;-77
2022/06/20 13:26:19;;;;;;;;;;;19.60;99.90;;;;;;5056285;28;20041;-76
2022/06/20 13:29:19;;;;;;;11.85;3.88;;;19.50;99.90;;;;;;5073561;28;19986;-76
2022/06/20 13:31:52;;;;;;;9.57;3.90;;;19.60;99.90;;;;;;5073466;28;20045;-75
2022/06/20 13:34:38;;;;;;;12.80;5.07;;;19.70;99.90;;;;;;5055416;28;20076;-77
2022/06/20 13:37:22;;;;;;;13.93;4.30;;;19.60;99.90;;;;;;5038288;28;20056;-76
2022/06/20 13:39:57;;;;;;;10.65;4.10;;;19.80;99.90;;;;;;5055591;28;20040;-76
2022/06/20 13:43:08;;;;;;;9.68;3.63;;;19.90;99.90;;;;;;5073332;28;20075;-76
2022/06/20 13:45:49;;;;;;;13.00;4.95;;;19.70;99.90;;;;;;4994902;28;20056;-76
2022/06/20 13:48:35;;;;;;;12.40;4.43;;;19.80;99.90;;;;;;5055287;28;20044;-76
2022/06/20 13:51:21;;;;;;;12.48;4.47;;;19.50;99.90;;;;;;5055597;28;20045;-76